Flight Track Log - Related Links

Times and Time Zones

All times are in EDT time to prevent confusion due to time zone crossing. See the UAL33 flight status page for this flight to view local times or setup timezone preferences in your user account.

Time Position Orientation Groundspeed Altitude Reporting Facility
EDT Latitude Longitude Course Direction KTS MPH feet Rate Location/Type
Sat 05:02:11 AM 35.7440 140.3900 149° Southeast 174 200 1,100  Level FlightAware ADS-B
Sat 05:02:35 AM 35.7270 140.4030 148° Southeast 177 204 2,100 2,045 Climbing FlightAware ADS-B
Sat 05:02:55 AM 35.7120 140.4140 149° Southeast 186 214 2,600 1,756 Climbing FlightAware ADS-B
Sat 05:03:16 AM 35.6970 140.4240 152° Southeast 189 217 3,300 1,650 Climbing FlightAware ADS-B
Sat 05:03:35 AM 35.6810 140.4350 151° Southeast 199 229 3,700 977 Climbing FlightAware ADS-B
Sat 05:03:59 AM 35.6600 140.4510 148° Southeast 234 269 4,000 955 Climbing FlightAware ADS-B
Sat 05:04:19 AM 35.6400 140.4650 150° Southeast 256 295 4,400 1,313 Climbing FlightAware ADS-B
Sat 05:04:31 AM 35.6270 140.4740 151° Southeast 270 311 4,700 1,167 Climbing FlightAware ADS-B
Sat 05:04:55 AM 35.6000 140.4940 149° Southeast 302 348 5,100 955 Climbing FlightAware ADS-B
Sat 05:05:15 AM 35.5750 140.5120 150° Southeast 327 376 5,400 1,200 Climbing FlightAware ADS-B
Sat 05:05:35 AM 35.5480 140.5340 146° Southeast 347 399 5,900 1,034 Climbing FlightAware ADS-B
Sat 05:05:44 AM 35.5380 140.5460 136° Southeast 357 411 5,900 706 Level FlightAware ADS-B
Sat 05:05:52 AM 35.5300 140.5580 129° Southeast 363 418 6,100 1,895 Climbing FlightAware ADS-B
Sat 05:06:03 AM 35.5210 140.5790 118° Southeast 365 420 6,500 2,211 Climbing FlightAware ADS-B
Sat 05:06:11 AM 35.5170 140.5950 107° East 364 419 6,800 2,625 Climbing FlightAware ADS-B
Sat 05:06:19 AM 35.5140 140.6120 102° East 362 417 7,200 2,690 Climbing FlightAware ADS-B
Sat 05:06:40 AM 35.5130 140.6530 92° East 366 421 8,100 2,364 Climbing FlightAware ADS-B
Sat 05:06:52 AM 35.5130 140.6790 90° East 370 426 8,500 2,229 Climbing FlightAware ADS-B
Sat 05:07:15 AM 35.5110 140.7270 93° East 377 434 9,400 2,250 Climbing FlightAware ADS-B
Sat 05:07:48 AM 35.5080 140.7990 93° East 387 445 10,600 2,229 Climbing FlightAware ADS-B
Sat 05:08:25 AM 35.5040 140.8820 93° East 394 453 12,000 2,301 Climbing FlightAware ADS-B
Sat 05:09:01 AM 35.4990 140.9630 94° East 401 461 13,400 2,029 Climbing FlightAware ADS-B
Sat 05:09:33 AM 35.4960 141.0340 93° East 410 472 14,300 1,941 Climbing FlightAware ADS-B
Sat 05:10:09 AM 35.5070 141.1070 79° East 409 471 15,600 2,060 Climbing FlightAware ADS-B
Sat 05:10:40 AM 35.5260 141.1750 71° East 411 473 16,600 1,970 Climbing FlightAware ADS-B
Sat 05:11:16 AM 35.5390 141.2590 79° East 421 484 17,800 1,917 Climbing FlightAware ADS-B
Sat 05:11:52 AM 35.5530 141.3430 78° East 425 489 18,900 1,917 Climbing FlightAware ADS-B
Sat 05:12:28 AM 35.5660 141.4230 79° East 426 490 20,100 1,800 Climbing FlightAware ADS-B
Sat 05:13:02 AM 35.5800 141.5110 79° East 435 501 21,000 1,457 Climbing FlightAware ADS-B
Sat 05:13:38 AM 35.5930 141.5950 79° East 443 510 21,800 1,443 Climbing FlightAware ADS-B
Sat 05:14:21 AM 35.6110 141.7090 79° East 453 521 22,900 1,425 Climbing FlightAware ADS-B
Sat 05:14:58 AM 35.6260 141.7990 78° East 458 527 23,700 1,500 Climbing FlightAware ADS-B
Sat 05:15:25 AM 35.6370 141.8730 80° East 461 531 24,500 1,406 Climbing FlightAware ADS-B
Sat 05:16:02 AM 35.6510 141.9630 79° East 464 534 25,200 1,259 Climbing FlightAware ADS-B
Sat 05:16:46 AM 35.6710 142.0910 79° East 472 543 26,200 1,291 Climbing FlightAware ADS-B
Sat 05:17:21 AM 35.6850 142.1840 79° East 476 548 26,900 1,200 Climbing FlightAware ADS-B
Sat 05:17:56 AM 35.7000 142.2780 79° East 480 552 27,600 1,129 Climbing FlightAware ADS-B
Sat 05:18:46 AM 35.7200 142.4120 80° East 486 559 28,500 988 Climbing FlightAware ADS-B
Sat 05:19:21 AM 35.7340 142.5040 79° East 490 564 29,000 986 Climbing FlightAware ADS-B
Sat 05:19:59 AM 35.7490 142.6050 80° East 491 565 29,700 1,114 Climbing FlightAware ADS-B
Sat 05:20:31 AM 35.7640 142.7020 79° East 493 567 30,300 649 Climbing FlightAware ADS-B
Sat 05:21:13 AM 35.7770 142.7950 80° East 493 567 30,500 154 Climbing FlightAware ADS-B
Sat 05:21:49 AM 35.7890 142.8800 80° East 493 567 30,500 1,385 Level FlightAware ADS-B
Sat 05:22:31 AM 35.8130 143.0340 79° East 778 895 32,300 1,917 Climbing FlightAware ADS-B
Sat 05:23:01 AM 35.8250 143.1190 80° East 499 574 32,800 1,120 Climbing FlightAware ADS-B
Sat 05:23:46 AM 35.8440 143.2460 80° East 496 571 33,700 1,125 Climbing FlightAware ADS-B
Sat 05:24:21 AM 35.8560 143.3340 80° East 495 570 34,300 474 Climbing FlightAware ADS-B
Sat 05:25:02 AM 35.8700 143.4310 80° East 495 570 34,300 667 Level FlightAware ADS-B
Sat 05:25:42 AM 35.8870 143.5470 80° East 499 574 35,200 711 Climbing FlightAware ADS-B
Sat 05:26:18 AM 35.8990 143.6330 80° East 499 574 35,200 714 Level FlightAware ADS-B
Sat 05:27:06 AM 35.9200 143.7860 80° East 498 573 36,200 955 Climbing FlightAware ADS-B
Sat 05:27:46 AM 35.9360 143.9000 80° East 499 574 36,600 587 Climbing FlightAware ADS-B
Sat 05:28:38 AM 35.9550 144.0380 80° East 499 574 37,100 918 Climbing FlightAware ADS-B
Sat 05:29:11 AM 35.9710 144.1500 80° East 495 570 37,900 667 Climbing FlightAware ADS-B
Sat 05:29:50 AM 35.9840 144.2430 80° East 495 570 37,900  Level FlightAware ADS-B
Sat 05:30:26 AM 35.9960 144.3280 80° East 495 570 37,900  Level FlightAware ADS-B
Sat 05:31:02 AM 36.0080 144.4130 80° East 495 570 37,900  Level FlightAware ADS-B
Sat 05:31:39 AM 36.0210 144.5010 80° East 495 570 37,900 88 Level FlightAware ADS-B
Sat 05:32:10 AM 36.0370 144.6430 82° East 494 568 38,000 79 Climbing FlightAware ADS-B
Sat 05:32:55 AM 36.0530 144.7620 81° East 494 568 38,000  Level FlightAware ADS-B
Sat 05:33:40 AM 36.0670 144.8780 81° East 494 568 38,000  Level FlightAware ADS-B
Sat 05:34:20 AM 36.0820 144.9910 81° East 495 570 38,000  Level FlightAware ADS-B
Sat 05:34:56 AM 36.0930 145.0760 81° East 495 570 38,000  Level FlightAware ADS-B
Sat 05:35:32 AM 36.1040 145.1620 81° East 495 570 38,000  Level FlightAware ADS-B
Sat 05:36:09 AM 36.1150 145.2500 81° East 495 570 38,000  Level FlightAware ADS-B
Sat 05:36:47 AM 36.1270 145.3400 81° East 495 570 38,000  Level FlightAware ADS-B
Sat 05:37:23 AM 36.1380 145.4260 81° East 495 570 38,000  Level FlightAware ADS-B
Sat 05:37:59 AM 36.1490 145.5120 81° East 495 570 38,000  Level FlightAware ADS-B
Sat 05:38:35 AM 36.1590 145.5980 82° East 495 570 38,000  Level FlightAware ADS-B
Sat 05:38:49 AM 36.2610 145.7230 45° Northeast 38,000  Level FlightAware ADS-B
Sat 05:38:54 AM 36.2630 145.7280 64° Northeast 38,000  Level FlightAware ADS-B
Sat 05:39:51 AM 36.3260 145.8660 60° Northeast 489 563 38,000  Level FlightAware ADS-B
Sat 05:40:28 AM 36.3600 145.9430 61° Northeast 489 563 38,000  Level FlightAware ADS-B
Sat 05:41:04 AM 36.3940 146.0190 61° Northeast 489 563 38,000  Level FlightAware ADS-B
Sat 05:41:40 AM 36.4270 146.0940 61° Northeast 489 563 38,000  Level FlightAware ADS-B
Sat 05:42:16 AM 36.4610 146.1690 61° Northeast 489 563 38,000  Level FlightAware ADS-B
Sat 05:42:53 AM 36.4950 146.2460 61° Northeast 489 563 38,000  Level FlightAware ADS-B
Sat 05:43:30 AM 36.5300 146.3240 61° Northeast 489 563 38,000  Level FlightAware ADS-B
Sat 05:44:06 AM 36.5630 146.3990 61° Northeast 489 563 38,000  Level FlightAware ADS-B
Sat 05:44:43 AM 36.5980 146.4770 61° Northeast 489 563 38,000  Level FlightAware ADS-B
Sat 05:45:19 AM 36.6310 146.5520 61° Northeast 489 563 38,000  Level FlightAware ADS-B
Sat 05:45:55 AM 36.6650 146.6280 61° Northeast 489 563 38,000  Level FlightAware ADS-B
Sat 05:46:31 AM 36.6990 146.7030 60° Northeast 489 563 38,000  Level FlightAware ADS-B
Sat 05:47:07 AM 36.7320 146.7790 62° Northeast 489 563 38,000  Level FlightAware ADS-B
Sat 05:47:44 AM 36.7670 146.8560 60° Northeast 489 563 38,000  Level FlightAware ADS-B
Sat 05:48:20 AM 36.8000 146.9320 62° Northeast 489 563 38,000  Level FlightAware ADS-B
Sat 05:48:56 AM 36.8340 147.0080 61° Northeast 489 563 38,000 Level FlightAware ADS-B
Sat 05:51:00 AM 36.9813 147.3221 60° Northeast  Level Estimated
Sat 05:52:00 AM 37.0522 147.4746 60° Northeast  Level Estimated
Sat 05:53:00 AM 37.1230 147.6273 60° Northeast  Level Estimated
Sat 05:54:00 AM 37.1936 147.7803 60° Northeast  Level Estimated
Sat 05:55:00 AM 37.2639 147.9336 60° Northeast  Level Estimated
Sat 05:56:00 AM 37.3341 148.0871 60° Northeast  Level Estimated
Sat 05:57:00 AM 37.4041 148.2410 60° Northeast  Level Estimated
Sat 05:58:00 AM 37.4738 148.3952 60° Northeast  Level Estimated
Sat 05:59:00 AM 37.5434 148.5496 60° Northeast  Level Estimated
Sat 06:00:00 AM 37.6128 148.7043 60° Northeast  Level Estimated
Sat 06:01:00 AM 37.6819 148.8593 61° Northeast  Level Estimated
Sat 06:02:00 AM 37.7509 149.0146 61° Northeast  Level Estimated
Sat 06:03:00 AM 37.8197 149.1702 61° Northeast  Level Estimated
Sat 06:04:00 AM 37.8882 149.3261 61° Northeast  Level Estimated
Sat 06:05:00 AM 37.9566 149.4823 61° Northeast  Level Estimated
Sat 06:06:00 AM 38.0247 149.6387 61° Northeast  Level Estimated
Sat 06:07:00 AM 38.0926 149.7955 61° Northeast  Level Estimated
Sat 06:08:00 AM 38.1604 149.9525 61° Northeast  Level Estimated
Sat 06:09:00 AM 38.2279 150.1099 61° Northeast  Level Estimated
Sat 06:10:00 AM 38.2952 150.2675 61° Northeast  Level Estimated
Sat 06:11:00 AM 38.3623 150.4254 62° Northeast  Level Estimated
Sat 06:12:00 AM 38.4292 150.5836 62° Northeast  Level Estimated
Sat 06:13:00 AM 38.4958 150.7422 62° Northeast  Level Estimated
Sat 06:14:00 AM 38.5623 150.9010 62° Northeast  Level Estimated
Sat 06:15:00 AM 38.6285 151.0600 62° Northeast  Level Estimated
Sat 06:16:00 AM 38.6945 151.2194 62° Northeast  Level Estimated
Sat 06:17:00 AM 38.7604 151.3791 62° Northeast  Level Estimated
Sat 06:18:00 AM 38.8260 151.5391 62° Northeast  Level Estimated
Sat 06:19:00 AM 38.8913 151.6994 62° Northeast  Level Estimated
Sat 06:20:00 AM 38.9565 151.8599 62° Northeast  Level Estimated
Sat 06:21:00 AM 39.0214 152.0208 63° Northeast  Level Estimated
Sat 06:22:00 AM 39.0861 152.1819 63° Northeast  Level Estimated
Sat 06:23:00 AM 39.1506 152.3434 63° Northeast  Level Estimated
Sat 06:24:00 AM 39.2149 152.5052 63° Northeast  Level Estimated
Sat 06:25:00 AM 39.2789 152.6672 63° Northeast  Level Estimated
Sat 06:26:00 AM 39.3427 152.8295 63° Northeast  Level Estimated
Sat 06:27:00 AM 39.4063 152.9922 63° Northeast  Level Estimated
Sat 06:28:00 AM 39.4697 153.1551 63° Northeast  Level Estimated
Sat 06:29:00 AM 39.5328 153.3183 63° Northeast  Level Estimated
Sat 06:30:00 AM 39.5957 153.4818 63° Northeast  Level Estimated
Sat 06:31:00 AM 39.6584 153.6457 64° Northeast  Level Estimated
Sat 06:32:00 AM 39.7209 153.8098 64° Northeast  Level Estimated
Sat 06:33:00 AM 39.7831 153.9742 64° Northeast  Level Estimated
Sat 06:34:00 AM 39.8562 154.1687 64° Northeast  Level Estimated
Sat 06:35:00 AM 39.9291 154.3637 64° Northeast  Level Estimated
Sat 06:36:00 AM 40.0016 154.5590 64° Northeast  Level Estimated
Sat 06:37:00 AM 40.0738 154.7548 64° Northeast  Level Estimated
Sat 06:38:00 AM 40.1456 154.9510 64° Northeast  Level Estimated
Sat 06:39:00 AM 40.2172 155.1476 64° Northeast  Level Estimated
Sat 06:40:00 AM 40.2883 155.3446 65° Northeast  Level Estimated
Sat 06:41:00 AM 40.3592 155.5421 65° Northeast  Level Estimated
Sat 06:42:00 AM 40.4297 155.7399 65° Northeast  Level Estimated
Sat 06:43:00 AM 40.4999 155.9382 65° Northeast  Level Estimated
Sat 06:44:00 AM 40.5698 156.1369 65° Northeast  Level Estimated
Sat 06:45:00 AM 40.6393 156.3360 65° Northeast  Level Estimated
Sat 06:46:00 AM 40.7084 156.5355 65° Northeast  Level Estimated
Sat 06:47:00 AM 40.7772 156.7354 66° East  Level Estimated
Sat 06:48:00 AM 40.8457 156.9357 66° East  Level Estimated
Sat 06:49:00 AM 40.9138 157.1365 66° East  Level Estimated
Sat 06:50:00 AM 40.9816 157.3376 66° East  Level Estimated
Sat 06:51:00 AM 41.0490 157.5392 66° East  Level Estimated
Sat 06:52:00 AM 41.1161 157.7412 66° East  Level Estimated
Sat 06:53:00 AM 41.1828 157.9436 66° East  Level Estimated
Sat 06:54:00 AM 41.2491 158.1464 66° East  Level Estimated
Sat 06:55:00 AM 41.3152 158.3496 67° East  Level Estimated
Sat 06:56:00 AM 41.3808 158.5532 67° East  Level Estimated
Sat 06:57:00 AM 41.4461 158.7573 67° East  Level Estimated
Sat 06:58:00 AM 41.5110 158.9617 67° East  Level Estimated
Sat 06:59:00 AM 41.5756 159.1666 67° East  Level Estimated
Sat 07:00:00 AM 41.6398 159.3719 67° East  Level Estimated
Sat 07:01:00 AM 41.7036 159.5775 67° East  Level Estimated
Sat 07:02:00 AM 41.7671 159.7836 68° East  Level Estimated
Sat 07:03:00 AM 41.8302 159.9901 68° East  Level Estimated
Sat 07:04:00 AM 41.8929 160.1970 68° East  Level Estimated
Sat 07:05:00 AM 41.9553 160.4043 68° East  Level Estimated
Sat 07:06:00 AM 42.0173 160.6120 68° East  Level Estimated
Sat 07:07:00 AM 42.0789 160.8201 68° East  Level Estimated
Sat 07:08:00 AM 42.1401 161.0287 68° East  Level Estimated
Sat 07:09:00 AM 42.2009 161.2376 68° East  Level Estimated
Sat 07:10:00 AM 42.2614 161.4469 69° East  Level Estimated
Sat 07:11:00 AM 42.3215 161.6566 69° East  Level Estimated
Sat 07:12:00 AM 42.3812 161.8667 69° East  Level Estimated
Sat 07:13:00 AM 42.4405 162.0773 69° East  Level Estimated
Sat 07:14:00 AM 42.4995 162.2882 69° East  Level Estimated
Sat 07:15:00 AM 42.5580 162.4995 69° East  Level Estimated
Sat 07:16:00 AM 42.6162 162.7112 69° East  Level Estimated
Sat 07:17:00 AM 42.6740 162.9233 70° East  Level Estimated
Sat 07:18:00 AM 42.7313 163.1358 70° East  Level Estimated
Sat 07:19:00 AM 42.7883 163.3487 70° East  Level Estimated
Sat 07:20:00 AM 42.8449 163.5620 70° East  Level Estimated
Sat 07:21:00 AM 42.9011 163.7757 70° East  Level Estimated
Sat 07:22:00 AM 42.9569 163.9897 70° East  Level Estimated
Sat 07:23:00 AM 43.0123 164.2042 70° East  Level Estimated
Sat 07:24:00 AM 43.0673 164.4190 71° East  Level Estimated
Sat 07:25:00 AM 43.1218 164.6342 71° East  Level Estimated
Sat 07:26:00 AM 43.1760 164.8498 71° East  Level Estimated
Sat 07:27:00 AM 43.2298 165.0658 71° East  Level Estimated
Sat 07:28:00 AM 43.2832 165.2822 71° East  Level Estimated
Sat 07:29:00 AM 43.3362 165.4989 71° East  Level Estimated
Sat 07:30:00 AM 43.3887 165.7160 72° East  Level Estimated
Sat 07:31:00 AM 43.4409 165.9335 72° East  Level Estimated
Sat 07:32:00 AM 43.4926 166.1514 72° East  Level Estimated
Sat 07:33:00 AM 43.5439 166.3696 72° East  Level Estimated
Sat 07:34:00 AM 43.5948 166.5882 72° East  Level Estimated
Sat 07:35:00 AM 43.6453 166.8072 72° East  Level Estimated
Sat 07:36:00 AM 43.6954 167.0265 72° East  Level Estimated
Sat 07:37:00 AM 43.7450 167.2462 73° East  Level Estimated
Sat 07:38:00 AM 43.7942 167.4663 73° East  Level Estimated
Sat 07:39:00 AM 43.8430 167.6868 73° East  Level Estimated
Sat 07:40:00 AM 43.8914 167.9075 73° East  Level Estimated
Sat 07:41:00 AM 43.9394 168.1287 73° East  Level Estimated
Sat 07:42:00 AM 43.9869 168.3502 73° East  Level Estimated
Sat 07:43:00 AM 44.0340 168.5721 73° East  Level Estimated
Sat 07:44:00 AM 44.0806 168.7943 74° East  Level Estimated
Sat 07:45:00 AM 44.1269 169.0168 74° East  Level Estimated
Sat 07:46:00 AM 44.1727 169.2397 74° East  Level Estimated
Sat 07:47:00 AM 44.2180 169.4630 74° East  Level Estimated
Sat 07:48:00 AM 44.2630 169.6866 74° East  Level Estimated
Sat 07:49:00 AM 44.3074 169.9105 74° East  Level Estimated
Sat 07:50:00 AM 44.3515 170.1348 75° East  Level Estimated
Sat 07:51:00 AM 44.3951 170.3594 75° East  Level Estimated
Sat 07:52:00 AM 44.4383 170.5843 75° East  Level Estimated
Sat 07:53:00 AM 44.4810 170.8096 75° East  Level Estimated
Sat 07:53:16 AM 43.2833 167.2000 70° East 541 623 39,000  Level Oakland Oceanic (ODAPS)
Sat 07:54:00 AM 44.5233 171.0352 75° East  Level Estimated
Sat 07:55:00 AM 44.5652 171.2611 75° East  Level Estimated
Sat 07:56:00 AM 44.6066 171.4874 76° East  Level Estimated
Sat 07:57:00 AM 44.6475 171.7139 76° East  Level Estimated
Sat 07:58:00 AM 44.6880 171.9408 76° East  Level Estimated
Sat 07:59:00 AM 43.8156 169.2468 71° East 541 623 39,000  Level FlightAware Transoceanic
Sat 08:00:00 AM 43.8622 169.4347 71° East 541 623 39,000  Level FlightAware Transoceanic
Sat 08:01:00 AM 43.9084 169.6228 71° East 541 623 39,000  Level FlightAware Transoceanic
Sat 08:02:00 AM 43.9544 169.8113 71° East 541 623 39,000  Level FlightAware Transoceanic
Sat 08:03:00 AM 44.0000 170.0000 71° East 541 623 39,000  Level FlightAware Transoceanic
Sat 08:03:04 AM 43.9667 169.8833 68° East 540 621 39,000  Level Oakland Oceanic (ODAPS)
Sat 08:03:56 AM 44.0500 170.2000 71° East 546 628 39,000  Level Oakland Oceanic (ODAPS)
Sat 08:04:00 AM 44.0494 170.1968 71° East 541 623 39,000  Level FlightAware Transoceanic
Sat 08:04:51 AM 44.1000 170.3833 71° East 532 612 39,000  Level Oakland Oceanic (ODAPS)
Sat 08:05:00 AM 44.0984 170.3939 71° East 541 623 39,000  Level FlightAware Transoceanic
Sat 08:06:00 AM 44.1470 170.5913 71° East 541 623 39,000  Level FlightAware Transoceanic
Sat 08:07:00 AM 44.1954 170.7891 71° East 541 623 39,000  Level FlightAware Transoceanic
Sat 08:08:00 AM 44.2433 170.9872 71° East 541 623 39,000  Level FlightAware Transoceanic
Sat 08:09:00 AM 44.2910 171.1856 72° East 540 621 39,000  Level FlightAware Transoceanic
Sat 08:10:00 AM 44.3448 171.4125 72° East 546 628 39,000  Level FlightAware Transoceanic
Sat 08:11:00 AM 44.3929 171.6001 72° East 532 612 39,000  Level FlightAware Transoceanic
Sat 08:12:00 AM 44.4404 171.8041 72° East 532 612 39,000  Level FlightAware Transoceanic
Sat 08:13:00 AM 44.4876 172.0084 72° East 532 612 39,000  Level FlightAware Transoceanic
Sat 08:14:00 AM 44.5344 172.2130 72° East 532 612 39,000  Level FlightAware Transoceanic
Sat 08:15:00 AM 44.5809 172.4180 72° East 532 612 39,000  Level FlightAware Transoceanic
Sat 08:16:00 AM 44.6270 172.6233 73° East 532 612 39,000  Level FlightAware Transoceanic
Sat 08:16:07 AM 44.6167 172.6167 72° East 550 633 39,000  Level Oakland Oceanic (ODAPS)
Sat 08:17:00 AM 44.6727 172.8289 73° East 532 612 39,000  Level FlightAware Transoceanic
Sat 08:18:00 AM 44.7180 173.0348 73° East 532 612 39,000  Level FlightAware Transoceanic
Sat 08:19:00 AM 44.7630 173.2411 73° East 532 612 39,000  Level FlightAware Transoceanic
Sat 08:20:00 AM 44.8076 173.4477 73° East 532 612 39,000  Level FlightAware Transoceanic
Sat 08:21:00 AM 44.8519 173.6546 73° East 532 612 39,000  Level FlightAware Transoceanic
Sat 08:22:00 AM 44.8799 173.8215 73° East 550 633 39,000  Level FlightAware Transoceanic
Sat 08:23:00 AM 44.9226 174.0234 73° East 550 633 39,000  Level FlightAware Transoceanic
Sat 08:24:00 AM 44.9648 174.2255 74° East 550 633 39,000  Level FlightAware Transoceanic
Sat 08:25:00 AM 45.0067 174.4280 74° East 550 633 39,000  Level FlightAware Transoceanic
Sat 08:26:00 AM 45.0483 174.6308 74° East 550 633 39,000  Level FlightAware Transoceanic
Sat 08:27:00 AM 45.0895 174.8338 74° East 550 633 39,000  Level FlightAware Transoceanic
Sat 08:28:00 AM 45.1304 175.0371 74° East 550 633 39,000  Level FlightAware Transoceanic
Sat 08:29:00 AM 45.1709 175.2408 74° East 550 633 39,000  Level FlightAware Transoceanic
Sat 08:29:58 AM 45.2167 175.4667 75° East 551 634 39,000  Level Oakland Oceanic (ODAPS)
Sat 08:30:00 AM 45.2110 175.4447 74° East 550 633 39,000  Level FlightAware Transoceanic
Sat 08:31:00 AM 45.2507 175.6489 75° East 550 633 39,000  Level FlightAware Transoceanic
Sat 08:32:00 AM 45.2901 175.8534 75° East 550 633 39,000  Level FlightAware Transoceanic
Sat 08:33:00 AM 45.3292 176.0582 75° East 550 633 39,000  Level FlightAware Transoceanic
Sat 08:34:00 AM 45.3678 176.2632 75° East 550 633 39,000  Level FlightAware Transoceanic
Sat 08:35:00 AM 45.4061 176.4686 75° East 550 633 39,000  Level FlightAware Transoceanic
Sat 08:36:00 AM 45.4587 176.7488 75° East 551 634 39,000  Level FlightAware Transoceanic
Sat 08:37:00 AM 45.4976 176.9636 76° East 551 634 39,000  Level FlightAware Transoceanic
Sat 08:38:00 AM 45.5362 177.1786 76° East 551 634 39,000  Level FlightAware Transoceanic
Sat 08:39:00 AM 45.5743 177.3940 76° East 551 634 39,000  Level FlightAware Transoceanic
Sat 08:40:00 AM 45.6120 177.6096 76° East 551 634 39,000  Level FlightAware Transoceanic
Sat 08:41:00 AM 45.6494 177.8255 76° East 551 634 39,000  Level FlightAware Transoceanic
Sat 08:42:00 AM 45.6863 178.0417 76° East 551 634 39,000  Level FlightAware Transoceanic
Sat 08:43:00 AM 45.7228 178.2582 77° East 551 634 39,000  Level FlightAware Transoceanic
Sat 08:43:51 AM 45.7500 178.3833 77° East 547 629 39,000  Level Oakland Oceanic (ODAPS)
Sat 08:44:00 AM 45.7589 178.4749 77° East 551 634 39,000  Level FlightAware Transoceanic
Sat 08:45:00 AM 45.7946 178.6920 77° East 551 634 39,000  Level FlightAware Transoceanic
Sat 08:46:00 AM 45.8298 178.9093 77° East 551 634 39,000  Level FlightAware Transoceanic
Sat 08:47:00 AM 45.8647 179.1269 77° East 551 634 39,000  Level FlightAware Transoceanic
Sat 08:48:00 AM 45.8992 179.3448 77° East 551 634 39,000  Level FlightAware Transoceanic
Sat 08:49:00 AM 45.9332 179.5629 77° East 551 634 39,000  Level FlightAware Transoceanic
Sat 08:50:00 AM 45.9657 179.7682 78° East 547 629 39,000  Level FlightAware Transoceanic
Sat 08:51:00 AM 46.0000 -180.0000 86° East 547 629 39,000  Level FlightAware Transoceanic
Sat 08:51:29 AM 46.0000 180.0000 86° East 557 641 39,000  Level Oakland Oceanic (ODAPS)
Sat 08:52:00 AM 46.0095 -179.7783 87° East 547 629 39,000  Level FlightAware Transoceanic
Sat 08:53:00 AM 46.0185 -179.5566 87° East 547 629 39,000  Level FlightAware Transoceanic
Sat 08:54:00 AM 46.0271 -179.3347 87° East 547 629 39,000  Level FlightAware Transoceanic
Sat 08:55:00 AM 46.0353 -179.1129 87° East 547 629 39,000  Level FlightAware Transoceanic
Sat 08:56:00 AM 46.0431 -178.8909 87° East 547 629 39,000  Level FlightAware Transoceanic
Sat 08:57:00 AM 46.0504 -178.6689 87° East 557 641 39,000  Level FlightAware Transoceanic
Sat 08:57:42 AM 46.0500 -178.6167 87° East 565 650 39,000  Level Oakland Oceanic (ODAPS)
Sat 08:58:00 AM 46.0573 -178.4468 88° East 557 641 39,000  Level FlightAware Transoceanic
Sat 08:59:00 AM 46.0638 -178.2247 88° East 557 641 39,000  Level FlightAware Transoceanic
Sat 09:00:00 AM 46.0698 -178.0025 88° East 557 641 39,000  Level FlightAware Transoceanic
Sat 09:01:00 AM 46.0754 -177.7803 88° East 557 641 39,000  Level FlightAware Transoceanic
Sat 09:02:00 AM 46.0806 -177.5580 88° East 557 641 39,000  Level FlightAware Transoceanic
Sat 09:03:00 AM 46.0854 -177.3357 88° East 557 641 39,000  Level FlightAware Transoceanic
Sat 09:04:00 AM 46.0852 -177.2566 88° East 565 650 39,000  Level FlightAware Transoceanic
Sat 09:05:00 AM 46.0895 -177.0298 89° East 565 650 39,000  Level FlightAware Transoceanic
Sat 09:06:00 AM 46.0933 -176.8030 89° East 565 650 39,000  Level FlightAware Transoceanic
Sat 09:07:00 AM 46.0967 -176.5761 89° East 565 650 39,000  Level FlightAware Transoceanic
Sat 09:08:00 AM 46.0997 -176.3492 89° East 565 650 39,000  Level FlightAware Transoceanic
Sat 09:09:00 AM 46.1022 -176.1222 89° East 565 650 39,000  Level FlightAware Transoceanic
Sat 09:10:00 AM 46.1042 -175.8953 89° East 565 650 39,000  Level FlightAware Transoceanic
Sat 09:11:00 AM 46.1058 -175.6683 89° East 565 650 39,000  Level FlightAware Transoceanic
Sat 09:11:35 AM 46.1000 -175.4833 90° East 573 659 39,000  Level Oakland Oceanic (ODAPS)
Sat 09:12:00 AM 46.1070 -175.4413 90° East 565 650 39,000  Level FlightAware Transoceanic
Sat 09:13:00 AM 46.1077 -175.2143 90° East 565 650 39,000  Level FlightAware Transoceanic
Sat 09:14:00 AM 46.1079 -174.9873 90° East 565 650 39,000  Level FlightAware Transoceanic
Sat 09:15:00 AM 46.1077 -174.7603 90° East 565 650 39,000  Level FlightAware Transoceanic
Sat 09:16:00 AM 46.1071 -174.5334 90° East 565 650 39,000  Level FlightAware Transoceanic
Sat 09:17:00 AM 46.0996 -174.1110 91° East 573 659 39,000  Level FlightAware Transoceanic
Sat 09:18:00 AM 46.0979 -173.8824 91° East 573 659 39,000  Level FlightAware Transoceanic
Sat 09:19:00 AM 46.0958 -173.6537 91° East 573 659 39,000  Level FlightAware Transoceanic
Sat 09:20:00 AM 46.0933 -173.4250 91° East 573 659 39,000  Level FlightAware Transoceanic
Sat 09:21:00 AM 46.0902 -173.1964 91° East 573 659 39,000  Level FlightAware Transoceanic
Sat 09:22:00 AM 46.0867 -172.9678 91° East 573 659 39,000  Level FlightAware Transoceanic
Sat 09:23:00 AM 46.0828 -172.7392 92° East 573 659 39,000  Level FlightAware Transoceanic
Sat 09:24:00 AM 46.0784 -172.5106 92° East 573 659 39,000  Level FlightAware Transoceanic
Sat 09:25:00 AM 46.0735 -172.2821 92° East 573 659 39,000  Level FlightAware Transoceanic
Sat 09:25:27 AM 46.0833 -172.3167 92° East 577 664 39,000  Level Oakland Oceanic (ODAPS)
Sat 09:26:00 AM 46.0682 -172.0537 92° East 573 659 39,000  Level FlightAware Transoceanic
Sat 09:27:00 AM 46.0625 -171.8253 92° East 573 659 39,000  Level FlightAware Transoceanic
Sat 09:28:00 AM 46.0563 -171.5969 92° East 573 659 39,000  Level FlightAware Transoceanic
Sat 09:29:00 AM 46.0496 -171.3686 92° East 573 659 39,000  Level FlightAware Transoceanic
Sat 09:30:00 AM 46.0424 -171.1403 93° East 573 659 39,000  Level FlightAware Transoceanic
Sat 09:31:00 AM 46.0390 -170.9258 93° East 577 664 39,000  Level FlightAware Transoceanic
Sat 09:32:00 AM 46.0299 -170.6942 93° East 577 664 39,000  Level FlightAware Transoceanic
Sat 09:33:00 AM 46.0204 -170.4627 93° East 577 664 39,000  Level FlightAware Transoceanic
Sat 09:34:00 AM 46.0104 -170.2313 94° East 577 664 39,000  Level FlightAware Transoceanic
Sat 09:35:00 AM 46.0000 -170.0000 95° East 577 664 39,000  Level FlightAware Transoceanic
Sat 09:35:29 AM 46.0000 -170.0000 95° East 582 670 39,000  Level Oakland Oceanic (ODAPS)
Sat 09:36:00 AM 45.9876 -169.7793 95° East 577 664 39,000  Level FlightAware Transoceanic
Sat 09:37:00 AM 45.9749 -169.5587 95° East 577 664 39,000  Level FlightAware Transoceanic
Sat 09:38:00 AM 45.9617 -169.3383 95° East 577 664 39,000  Level FlightAware Transoceanic
Sat 09:39:00 AM 45.9480 -169.1179 95° East 577 664 39,000  Level FlightAware Transoceanic
Sat 09:39:21 AM 45.9500 -169.1000 95° East 585 673 39,000  Level Oakland Oceanic (ODAPS)
Sat 09:40:00 AM 45.9340 -168.8976 95° East 577 664 39,000  Level FlightAware Transoceanic
Sat 09:41:00 AM 45.9155 -168.6175 96° East 582 670 39,000  Level FlightAware Transoceanic
Sat 09:42:00 AM 45.8998 -168.3875 96° East 582 670 39,000  Level FlightAware Transoceanic
Sat 09:43:00 AM 45.8836 -168.1576 96° East 582 670 39,000  Level FlightAware Transoceanic
Sat 09:44:00 AM 45.8670 -167.9279 96° East 582 670 39,000  Level FlightAware Transoceanic
Sat 09:45:00 AM 45.8540 -167.7170 96° East 585 673 39,000  Level FlightAware Transoceanic
Sat 09:46:00 AM 45.8363 -167.4870 96° East 585 673 39,000  Level FlightAware Transoceanic
Sat 09:47:00 AM 45.8182 -167.2572 97° East 585 673 39,000  Level FlightAware Transoceanic
Sat 09:48:00 AM 45.7997 -167.0274 97° East 585 673 39,000  Level FlightAware Transoceanic
Sat 09:49:00 AM 45.7807 -166.7979 97° East 585 673 39,000  Level FlightAware Transoceanic
Sat 09:50:00 AM 45.7612 -166.5685 97° East 585 673 39,000  Level FlightAware Transoceanic
Sat 09:51:00 AM 45.7413 -166.3392 97° East 585 673 39,000  Level FlightAware Transoceanic
Sat 09:52:00 AM 45.7209 -166.1102 97° East 585 673 39,000  Level FlightAware Transoceanic
Sat 09:53:00 AM 45.7000 -165.8813 98° East 585 673 39,000  Level FlightAware Transoceanic
Sat 09:53:12 AM 45.7000 -165.9000 97° East 581 669 39,000  Level Oakland Oceanic (ODAPS)
Sat 09:54:00 AM 45.6787 -165.6525 98° East 585 673 39,000  Level FlightAware Transoceanic
Sat 09:55:00 AM 45.6570 -165.4240 98° East 585 673 39,000  Level FlightAware Transoceanic
Sat 09:56:00 AM 45.6348 -165.1956 98° East 585 673 39,000  Level FlightAware Transoceanic
Sat 09:57:00 AM 45.6121 -164.9674 98° East 585 673 39,000  Level FlightAware Transoceanic
Sat 09:58:00 AM 45.5890 -164.7394 98° East 585 673 39,000  Level FlightAware Transoceanic
Sat 09:59:00 AM 45.5656 -164.5260 98° East 581 669 39,000  Level FlightAware Transoceanic
Sat 10:00:00 AM 45.5415 -164.2976 99° East 581 669 39,000  Level FlightAware Transoceanic
Sat 10:01:00 AM 45.5171 -164.0694 99° East 581 669 39,000  Level FlightAware Transoceanic
Sat 10:01:41 AM 45.5000 -163.9667 99° East 584 672 39,000  Level Oakland Oceanic (ODAPS)
Sat 10:02:00 AM 45.4922 -163.8415 99° East 581 669 39,000  Level FlightAware Transoceanic
Sat 10:03:00 AM 45.4668 -163.6137 99° East 581 669 39,000  Level FlightAware Transoceanic
Sat 10:04:00 AM 45.4410 -163.3862 99° East 581 669 39,000  Level FlightAware Transoceanic
Sat 10:05:00 AM 45.4147 -163.1589 99° East 581 669 39,000  Level FlightAware Transoceanic
Sat 10:06:00 AM 45.3880 -162.9317 100° East 581 669 39,000  Level FlightAware Transoceanic
Sat 10:07:00 AM 45.3608 -162.7048 100° East 581 669 39,000  Level FlightAware Transoceanic
Sat 10:08:00 AM 45.3392 -162.5588 100° East 584 672 39,000  Level FlightAware Transoceanic
Sat 10:09:00 AM 45.3108 -162.3249 100° East 584 672 39,000  Level FlightAware Transoceanic
Sat 10:10:00 AM 45.2818 -162.0913 100° East 584 672 39,000  Level FlightAware Transoceanic
Sat 10:11:00 AM 45.2524 -161.8579 100° East 584 672 39,000  Level FlightAware Transoceanic
Sat 10:12:00 AM 45.2225 -161.6248 100° East 584 672 39,000  Level FlightAware Transoceanic
Sat 10:13:00 AM 45.1921 -161.3919 101° East 584 672 39,000  Level FlightAware Transoceanic
Sat 10:14:00 AM 45.1613 -161.1593 101° East 584 672 39,000  Level FlightAware Transoceanic
Sat 10:15:00 AM 45.1300 -160.9269 101° East 584 672 39,000  Level FlightAware Transoceanic
Sat 10:16:00 AM 45.0982 -160.6948 101° East 584 672 39,000  Level FlightAware Transoceanic
Sat 10:17:00 AM 45.0659 -160.4629 101° East 584 672 39,000  Level FlightAware Transoceanic
Sat 10:18:00 AM 45.0332 -160.2313 101° East 584 672 39,000  Level FlightAware Transoceanic
Sat 10:19:00 AM 45.0000 -160.0000 94° East 584 672 39,000  Level FlightAware Transoceanic
Sat 10:20:00 AM 44.9884 -159.7929 95° East 584 672 39,000  Level FlightAware Transoceanic
Sat 10:20:36 AM 45.0000 -159.9000 95° East 555 639 39,000  Level Oakland Oceanic (ODAPS)
Sat 10:21:00 AM 44.9765 -159.5860 95° East 584 672 39,000  Level FlightAware Transoceanic
Sat 10:21:25 AM 44.9833 -159.7333 95° East 553 636 39,000  Level Oakland Oceanic (ODAPS)
Sat 10:22:00 AM 44.9641 -159.3791 95° East 584 672 39,000  Level FlightAware Transoceanic
Sat 10:23:00 AM 44.9514 -159.1723 95° East 584 672 39,000  Level FlightAware Transoceanic
Sat 10:24:00 AM 44.9383 -158.9656 95° East 584 672 39,000  Level FlightAware Transoceanic
Sat 10:25:00 AM 44.9249 -158.7590 95° East 584 672 39,000  Level FlightAware Transoceanic
Sat 10:26:00 AM 44.9204 -158.6191 95° East 555 639 39,000  Level FlightAware Transoceanic
Sat 10:26:10 AM 44.9333 -158.8167 95° East 553 636 39,000  Level Oakland Oceanic (ODAPS)
Sat 10:27:00 AM 44.9024 -158.4469 96° East 553 636 39,000  Level FlightAware Transoceanic
Sat 10:28:00 AM 44.8875 -158.2329 96° East 553 636 39,000  Level FlightAware Transoceanic
Sat 10:29:00 AM 44.8722 -158.0190 96° East 553 636 39,000  Level FlightAware Transoceanic
Sat 10:30:00 AM 44.8565 -157.8052 96° East 553 636 39,000  Level FlightAware Transoceanic
Sat 10:31:00 AM 44.8404 -157.5915 96° East 553 636 39,000  Level FlightAware Transoceanic
Sat 10:32:00 AM 44.8395 -157.5102 96° East 553 636 39,000  Level FlightAware Transoceanic
Sat 10:33:00 AM 44.8224 -157.2929 96° East 553 636 39,000  Level FlightAware Transoceanic
Sat 10:34:00 AM 44.8049 -157.0757 97° East 553 636 39,000  Level FlightAware Transoceanic
Sat 10:35:00 AM 44.7869 -156.8586 97° East 553 636 39,000  Level FlightAware Transoceanic
Sat 10:36:00 AM 44.7686 -156.6417 97° East 553 636 39,000  Level FlightAware Transoceanic
Sat 10:37:00 AM 44.7499 -156.4249 97° East 553 636 39,000  Level FlightAware Transoceanic
Sat 10:38:00 AM 44.7307 -156.2083 97° East 553 636 39,000  Level FlightAware Transoceanic
Sat 10:39:00 AM 44.7112 -155.9918 97° East 553 636 39,000  Level FlightAware Transoceanic
Sat 10:39:49 AM 44.7000 -155.8833 97° East 537 618 39,000  Level Oakland Oceanic (ODAPS)
Sat 10:40:00 AM 44.6912 -155.7755 97° East 553 636 39,000  Level FlightAware Transoceanic
Sat 10:41:00 AM 44.6708 -155.5593 98° East 553 636 39,000  Level FlightAware Transoceanic
Sat 10:42:00 AM 44.6501 -155.3432 98° East 553 636 39,000  Level FlightAware Transoceanic
Sat 10:43:00 AM 44.6289 -155.1273 98° East 553 636 39,000  Level FlightAware Transoceanic
Sat 10:44:00 AM 44.6073 -154.9116 98° East 553 636 39,000  Level FlightAware Transoceanic
Sat 10:45:00 AM 44.5853 -154.6960 98° East 553 636 39,000  Level FlightAware Transoceanic
Sat 10:46:00 AM 44.5756 -154.6112 98° East 537 618 39,000  Level FlightAware Transoceanic
Sat 10:47:00 AM 44.5534 -154.3997 98° East 537 618 39,000  Level FlightAware Transoceanic
Sat 10:48:00 AM 44.5309 -154.1884 99° East 537 618 39,000  Level FlightAware Transoceanic
Sat 10:49:00 AM 44.5080 -153.9773 99° East 537 618 39,000  Level FlightAware Transoceanic
Sat 10:50:00 AM 44.4848 -153.7663 99° East 537 618 39,000  Level FlightAware Transoceanic
Sat 10:51:00 AM 44.4611 -153.5555 99° East 537 618 39,000  Level FlightAware Transoceanic
Sat 10:52:00 AM 44.4370 -153.3448 99° East 537 618 39,000  Level FlightAware Transoceanic
Sat 10:53:00 AM 44.4126 -153.1344 99° East 537 618 39,000  Level FlightAware Transoceanic
Sat 10:53:40 AM 44.4000 -153.0500 99° East 526 605 39,000  Level Oakland Oceanic (ODAPS)
Sat 10:54:00 AM 44.3878 -152.9241 99° East 537 618 39,000  Level FlightAware Transoceanic
Sat 10:55:00 AM 44.3625 -152.7140 100° East 537 618 39,000  Level FlightAware Transoceanic
Sat 10:56:00 AM 44.3369 -152.5040 100° East 537 618 39,000  Level FlightAware Transoceanic
Sat 10:57:00 AM 44.3110 -152.2943 100° East 537 618 39,000  Level FlightAware Transoceanic
Sat 10:58:00 AM 44.2846 -152.0847 100° East 537 618 39,000  Level FlightAware Transoceanic
Sat 10:59:00 AM 44.2757 -152.0288 100° East 526 605 39,000  Level FlightAware Transoceanic
Sat 11:00:00 AM 44.2497 -151.8251 100° East 526 605 39,000  Level FlightAware Transoceanic
Sat 11:01:00 AM 44.2234 -151.6215 100° East 526 605 39,000  Level FlightAware Transoceanic
Sat 11:02:00 AM 44.1968 -151.4182 100° East 526 605 39,000  Level FlightAware Transoceanic
Sat 11:03:00 AM 44.1697 -151.2150 101° East 526 605 39,000  Level FlightAware Transoceanic
Sat 11:04:00 AM 44.1423 -151.0120 101° East 526 605 39,000  Level FlightAware Transoceanic
Sat 11:05:00 AM 44.1146 -150.8092 101° East 526 605 39,000  Level FlightAware Transoceanic
Sat 11:06:00 AM 44.0865 -150.6066 101° East 526 605 39,000  Level FlightAware Transoceanic
Sat 11:07:00 AM 44.0580 -150.4042 101° East 526 605 39,000  Level FlightAware Transoceanic
Sat 11:07:32 AM 44.0500 -150.3167 102° East 520 598 39,000  Level Oakland Oceanic (ODAPS)
Sat 11:08:00 AM 44.0292 -150.2020 101° East 526 605 39,000  Level FlightAware Transoceanic
Sat 11:09:00 AM 44.0000 -150.0000 102° East 526 605 39,000  Level FlightAware Transoceanic
Sat 11:09:10 AM 44.0000 -150.0000 102° East 516 594 39,000  Level Oakland Oceanic (ODAPS)
Sat 11:10:00 AM 43.9711 -149.8092 102° East 526 605 39,000  Level FlightAware Transoceanic
Sat 11:11:00 AM 43.9418 -149.6186 102° East 526 605 39,000  Level FlightAware Transoceanic
Sat 11:12:00 AM 43.9122 -149.4281 102° East 526 605 39,000  Level FlightAware Transoceanic
Sat 11:13:00 AM 43.8823 -149.2379 102° East 520 598 39,000  Level FlightAware Transoceanic
Sat 11:14:00 AM 43.8521 -149.0479 103° East 520 598 39,000  Level FlightAware Transoceanic
Sat 11:15:00 AM 43.8181 -148.8365 103° East 516 594 39,000  Level FlightAware Transoceanic
Sat 11:16:00 AM 43.7866 -148.6433 103° East 516 594 39,000  Level FlightAware Transoceanic
Sat 11:17:00 AM 43.7548 -148.4503 103° East 516 594 39,000  Level FlightAware Transoceanic
Sat 11:18:00 AM 43.7227 -148.2575 103° East 516 594 39,000  Level FlightAware Transoceanic
Sat 11:19:00 AM 43.6903 -148.0649 103° East 516 594 39,000  Level FlightAware Transoceanic
Sat 11:20:00 AM 43.6575 -147.8725 103° East 516 594 39,000  Level FlightAware Transoceanic
Sat 11:21:00 AM 43.6244 -147.6803 103° East 516 594 39,000 706 Level FlightAware Transoceanic
Sat 11:21:25 AM 43.6167 -147.6833 103° East 502 578 40,000  Climbing Oakland Oceanic (ODAPS)
Sat 11:22:00 AM 43.5910 -147.4884 104° East 516 594 39,000 -632 Descending FlightAware Transoceanic
Sat 11:23:00 AM 43.5573 -147.2966 104° East 516 594 39,000  Level FlightAware Transoceanic
Sat 11:24:00 AM 43.5232 -147.1051 104° East 516 594 39,000  Level FlightAware Transoceanic
Sat 11:25:00 AM 43.4889 -146.9138 104° East 516 594 39,000  Level FlightAware Transoceanic
Sat 11:26:00 AM 43.4542 -146.7227 104° East 516 594 39,000 500 Level FlightAware Transoceanic
Sat 11:27:00 AM 43.4176 -146.5617 104° East 502 578 40,000 500 Climbing FlightAware Transoceanic
Sat 11:28:00 AM 43.3833 -146.3755 104° East 502 578 40,000  Level FlightAware Transoceanic
Sat 11:29:00 AM 43.3488 -146.1895 104° East 502 578 40,000  Level FlightAware Transoceanic
Sat 11:30:00 AM 43.3139 -146.0037 105° East 502 578 40,000  Level FlightAware Transoceanic
Sat 11:31:00 AM 43.2788 -145.8182 105° East 502 578 40,000  Level FlightAware Transoceanic
Sat 11:32:00 AM 43.2434 -145.6328 105° East 502 578 40,000  Level FlightAware Transoceanic
Sat 11:33:00 AM 43.2076 -145.4477 105° East 502 578 40,000  Level FlightAware Transoceanic
Sat 11:34:00 AM 43.1716 -145.2628 105° East 502 578 40,000  Level FlightAware Transoceanic
Sat 11:35:00 AM 43.1352 -145.0781 105° East 502 578 40,000  Level FlightAware Transoceanic
Sat 11:35:17 AM 43.1500 -145.1333 105° East 501 577 40,000  Level Oakland Oceanic (ODAPS)
Sat 11:36:00 AM 43.0986 -144.8936 105° East 502 578 40,000  Level FlightAware Transoceanic
Sat 11:37:00 AM 43.0617 -144.7093 105° East 502 578 40,000  Level FlightAware Transoceanic
Sat 11:38:00 AM 43.0244 -144.5253 106° East 502 578 40,000  Level FlightAware Transoceanic
Sat 11:39:00 AM 42.9869 -144.3415 106° East 502 578 40,000  Level FlightAware Transoceanic
Sat 11:40:00 AM 42.9491 -144.1579 106° East 502 578 40,000  Level FlightAware Transoceanic
Sat 11:41:00 AM 42.9310 -144.0559 106° East 501 577 40,000  Level FlightAware Transoceanic
Sat 11:42:00 AM 42.8935 -143.8771 106° East 501 577 40,000  Level FlightAware Transoceanic
Sat 11:43:00 AM 42.8558 -143.6985 106° East 501 577 40,000  Level FlightAware Transoceanic
Sat 11:44:00 AM 42.8177 -143.5201 106° East 501 577 40,000  Level FlightAware Transoceanic
Sat 11:45:00 AM 42.7794 -143.3420 106° East 501 577 40,000  Level FlightAware Transoceanic
Sat 11:46:00 AM 42.7409 -143.1640 107° East 501 577 40,000  Level FlightAware Transoceanic
Sat 11:47:00 AM 42.7020 -142.9863 107° East 501 577 40,000  Level FlightAware Transoceanic
Sat 11:48:00 AM 42.6629 -142.8088 107° East 501 577 40,000  Level FlightAware Transoceanic
Sat 11:49:00 AM 42.6235 -142.6315 107° East 501 577 40,000  Level FlightAware Transoceanic
Sat 11:49:08 AM 42.6167 -142.6167 107° East 501 577 40,000  Level Oakland Oceanic (ODAPS)
Sat 11:50:00 AM 42.5838 -142.4545 107° East 501 577 40,000  Level FlightAware Transoceanic
Sat 11:51:00 AM 42.5438 -142.2777 107° East 501 577 40,000  Level FlightAware Transoceanic
Sat 11:52:00 AM 42.5036 -142.1011 107° East 501 577 40,000  Level FlightAware Transoceanic
Sat 11:53:00 AM 42.4631 -141.9247 107° East 501 577 40,000  Level FlightAware Transoceanic
Sat 11:54:00 AM 42.4223 -141.7486 107° East 501 577 40,000  Level FlightAware Transoceanic
Sat 11:55:00 AM 42.3772 -141.5639 108° East 501 577 40,000  Level FlightAware Transoceanic
Sat 11:56:00 AM 42.3363 -141.3892 108° East 501 577 40,000  Level FlightAware Transoceanic
Sat 11:57:00 AM 42.2952 -141.2147 108° East 501 577 40,000  Level FlightAware Transoceanic
Sat 11:58:00 AM 42.2538 -141.0405 108° East 501 577 40,000  Level FlightAware Transoceanic
Sat 11:59:00 AM 42.2122 -140.8665 108° East 501 577 40,000  Level FlightAware Transoceanic
Sat 12:00:00 PM 42.1702 -140.6927 108° East 501 577 40,000  Level FlightAware Transoceanic
Sat 12:01:00 PM 42.1281 -140.5192 108° East 501 577 40,000  Level FlightAware Transoceanic
Sat 12:02:00 PM 42.0856 -140.3459 108° East 501 577 40,000  Level FlightAware Transoceanic
Sat 12:03:00 PM 42.0429 -140.1728 108° East 501 577 40,000  Level FlightAware Transoceanic
Sat 12:03:00 PM 42.0333 -140.1333 109° East 510 587 40,000  Level Oakland Oceanic (ODAPS)
Sat 12:03:47 PM 42.0000 -140.0000 108° East 508 585 40,000  Level Oakland Oceanic (ODAPS)
Sat 12:04:00 PM 42.0000 -140.0000 108° East 501 577 40,000  Level FlightAware Transoceanic
Sat 12:05:00 PM 41.9566 -139.8232 108° East 501 577 40,000  Level FlightAware Transoceanic
Sat 12:06:00 PM 41.9129 -139.6466 108° East 501 577 40,000  Level FlightAware Transoceanic
Sat 12:07:00 PM 41.8689 -139.4702 109° East 501 577 40,000  Level FlightAware Transoceanic
Sat 12:08:00 PM 41.8246 -139.2941 109° East 501 577 40,000  Level FlightAware Transoceanic
Sat 12:09:00 PM 41.7801 -139.1183 109° East 510 587 40,000  Level FlightAware Transoceanic
Sat 12:10:00 PM 41.7307 -138.9245 109° East 508 585 40,000  Level FlightAware Transoceanic
Sat 12:11:00 PM 41.6848 -138.7462 109° East 508 585 40,000  Level FlightAware Transoceanic
Sat 12:12:00 PM 41.6387 -138.5681 109° East 508 585 40,000  Level FlightAware Transoceanic
Sat 12:13:00 PM 41.5923 -138.3902 109° East 508 585 40,000  Level FlightAware Transoceanic
Sat 12:14:00 PM 41.5456 -138.2126 109° East 508 585 40,000  Level FlightAware Transoceanic
Sat 12:15:00 PM 41.4987 -138.0353 110° East 508 585 40,000  Level FlightAware Transoceanic
Sat 12:16:00 PM 41.4515 -137.8582 110° East 508 585 40,000  Level FlightAware Transoceanic
Sat 12:16:54 PM 41.4000 -137.6833 110° East 504 580 40,000  Level Oakland Oceanic (ODAPS)
Sat 12:17:00 PM 41.4039 -137.6814 110° East 508 585 40,000  Level FlightAware Transoceanic
Sat 12:18:00 PM 41.3562 -137.5048 110° East 508 585 40,000  Level FlightAware Transoceanic
Sat 12:19:00 PM 41.3082 -137.3285 110° East 508 585 40,000  Level FlightAware Transoceanic
Sat 12:20:00 PM 41.2598 -137.1525 110° East 508 585 40,000  Level FlightAware Transoceanic
Sat 12:21:00 PM 41.2113 -136.9767 110° East 508 585 40,000  Level FlightAware Transoceanic
Sat 12:22:00 PM 41.1624 -136.8012 110° East 508 585 40,000  Level FlightAware Transoceanic
Sat 12:23:00 PM 41.1099 -136.6277 110° East 504 580 40,000  Level FlightAware Transoceanic
Sat 12:24:00 PM 41.0606 -136.4526 111° Southeast 504 580 40,000  Level FlightAware Transoceanic
Sat 12:25:00 PM 41.0111 -136.2779 111° Southeast 504 580 40,000  Level FlightAware Transoceanic
Sat 12:26:00 PM 40.9613 -136.1034 111° Southeast 504 580 40,000  Level FlightAware Transoceanic
Sat 12:27:00 PM 40.9112 -135.9291 111° Southeast 504 580 40,000  Level FlightAware Transoceanic
Sat 12:28:00 PM 40.8609 -135.7551 111° Southeast 504 580 40,000  Level FlightAware Transoceanic
Sat 12:29:00 PM 40.8103 -135.5814 111° Southeast 504 580 40,000  Level FlightAware Transoceanic
Sat 12:30:00 PM 40.7594 -135.4080 111° Southeast 504 580 40,000  Level FlightAware Transoceanic
Sat 12:30:46 PM 40.7333 -135.3000 111° Southeast 500 575 40,000  Level Oakland Oceanic (ODAPS)
Sat 12:31:00 PM 40.7083 -135.2348 111° Southeast 504 580 40,000  Level FlightAware Transoceanic
Sat 12:32:00 PM 40.6570 -135.0619 111° Southeast 504 580 40,000  Level FlightAware Transoceanic
Sat 12:33:00 PM 40.6053 -134.8892 112° Southeast 504 580 40,000  Level FlightAware Transoceanic
Sat 12:34:00 PM 40.5535 -134.7169 112° Southeast 504 580 40,000  Level FlightAware Transoceanic
Sat 12:35:00 PM 40.5013 -134.5448 112° Southeast 504 580 40,000  Level FlightAware Transoceanic
Sat 12:36:00 PM 40.4489 -134.3729 112° Southeast 504 580 40,000  Level FlightAware Transoceanic
Sat 12:37:00 PM 40.4169 -134.2533 112° Southeast 500 575 40,000  Level FlightAware Transoceanic
Sat 12:38:00 PM 40.3632 -134.0799 112° Southeast 500 575 40,000  Level FlightAware Transoceanic
Sat 12:39:00 PM 40.3093 -133.9067 112° Southeast 500 575 40,000  Level FlightAware Transoceanic
Sat 12:40:00 PM 40.2552 -133.7337 112° Southeast 500 575 40,000  Level FlightAware Transoceanic
Sat 12:41:00 PM 40.2007 -133.5611 112° Southeast 500 575 40,000  Level FlightAware Transoceanic
Sat 12:42:00 PM 40.1460 -133.3887 113° Southeast 500 575 40,000  Level FlightAware Transoceanic
Sat 12:43:00 PM 40.0911 -133.2166 113° Southeast 500 575 40,000  Level FlightAware Transoceanic
Sat 12:44:00 PM 40.0359 -133.0448 113° Southeast 500 575 40,000  Level FlightAware Transoceanic
Sat 12:44:47 PM 40.0167 -132.9833 113° Southeast 499 574 40,000  Level Oakland Oceanic (ODAPS)
Sat 12:45:00 PM 39.9805 -132.8733 113° Southeast 500 575 40,000  Level FlightAware Transoceanic
Sat 12:46:00 PM 39.9248 -132.7020 113° Southeast 500 575 40,000  Level FlightAware Transoceanic
Sat 12:47:00 PM 39.8688 -132.5310 113° Southeast 500 575 40,000  Level FlightAware Transoceanic
Sat 12:48:00 PM 39.8126 -132.3604 113° Southeast 500 575 40,000  Level FlightAware Transoceanic
Sat 12:49:00 PM 39.7562 -132.1899 113° Southeast 500 575 40,000  Level FlightAware Transoceanic
Sat 12:50:00 PM 39.6995 -132.0198 113° Southeast 500 575 40,000  Level FlightAware Transoceanic
Sat 12:51:00 PM 39.6510 -131.8741 114° Southeast 499 574 40,000  Level FlightAware Transoceanic
Sat 12:52:00 PM 39.5979 -131.7166 114° Southeast 499 574 40,000  Level FlightAware Transoceanic
Sat 12:53:00 PM 39.5446 -131.5593 114° Southeast 499 574 40,000  Level FlightAware Transoceanic
Sat 12:54:00 PM 39.4911 -131.4023 114° Southeast 499 574 40,000  Level FlightAware Transoceanic
Sat 12:55:00 PM 39.4374 -131.2455 114° Southeast 499 574 40,000  Level FlightAware Transoceanic
Sat 12:56:00 PM 39.3834 -131.0890 114° Southeast 499 574 40,000  Level FlightAware Transoceanic
Sat 12:57:00 PM 39.3293 -130.9327 114° Southeast 499 574 40,000  Level FlightAware Transoceanic
Sat 12:58:00 PM 39.2749 -130.7766 114° Southeast 499 574 40,000  Level FlightAware Transoceanic
Sat 12:58:29 PM 39.2500 -130.7000 114° Southeast 503 579 40,000  Level Oakland Oceanic (ODAPS)
Sat 12:59:00 PM 39.2203 -130.6208 114° Southeast 499 574 40,000  Level FlightAware Transoceanic
Sat 01:00:00 PM 39.1656 -130.4652 114° Southeast 499 574 40,000  Level FlightAware Transoceanic
Sat 01:01:00 PM 39.1106 -130.3099 115° Southeast 499 574 40,000  Level FlightAware Transoceanic
Sat 01:02:00 PM 39.0554 -130.1548 115° Southeast 499 574 40,000  Level FlightAware Transoceanic
Sat 01:02:48 PM 39.0000 -130.0000 102° East 510 587 40,000  Level Oakland Oceanic (ODAPS)
Sat 01:03:00 PM 39.0000 -130.0000 102° East 499 574 40,000  Level FlightAware Transoceanic
Sat 01:04:00 PM 38.9708 -129.8223 102° East 503 579 40,000  Level FlightAware Transoceanic
Sat 01:05:00 PM 38.9412 -129.6448 102° East 503 579 40,000  Level FlightAware Transoceanic
Sat 01:06:00 PM 38.9115 -129.4674 102° East 503 579 40,000  Level FlightAware Transoceanic
Sat 01:07:00 PM 38.8814 -129.2901 102° East 503 579 40,000  Level FlightAware Transoceanic
Sat 01:08:00 PM 38.8511 -129.1130 102° East 503 579 40,000  Level FlightAware Transoceanic
Sat 01:09:00 PM 38.8205 -128.9361 103° East 510 587 40,000  Level FlightAware Transoceanic
Sat 01:10:00 PM 38.7897 -128.7593 103° East 510 587 40,000  Level FlightAware Transoceanic
Sat 01:11:00 PM 38.7586 -128.5827 103° East 510 587 40,000  Level FlightAware Transoceanic
Sat 01:12:00 PM 38.7272 -128.4062 103° East 510 587 40,000  Level FlightAware Transoceanic
Sat 01:12:16 PM 38.7167 -128.3000 103° East 508 585 40,000  Level Oakland Oceanic (ODAPS)
Sat 01:13:00 PM 38.6955 -128.2298 103° East 510 587 40,000  Level FlightAware Transoceanic
Sat 01:14:00 PM 38.6636 -128.0537 103° East 510 587 40,000  Level FlightAware Transoceanic
Sat 01:15:00 PM 38.6315 -127.8777 103° East 510 587 40,000  Level FlightAware Transoceanic
Sat 01:16:00 PM 38.5990 -127.7018 103° East 510 587 40,000  Level FlightAware Transoceanic
Sat 01:16:57 PM 38.5625 -127.4981 111° Southeast 512 589 40,000  Level Oakland Center
Sat 01:17:00 PM 38.5663 -127.5261 103° East 510 587 40,000 -98 Level FlightAware Transoceanic
Sat 01:17:58 PM 38.5278 -127.3225 104° East 511 588 39,900  Descending Oakland Center
Sat 01:18:00 PM 38.5305 -127.3242 104° East 508 585 40,000  Climbing FlightAware Transoceanic
Sat 01:18:59 PM 38.4942 -127.1481 104° East 510 587 39,900  Descending Oakland Center
Sat 01:19:00 PM 38.4987 -127.1620 104° East 508 585 40,000 98 Climbing FlightAware Transoceanic
Sat 01:20:00 PM 38.4667 -127.0000 111° Southeast 508 585 40,000  Level FlightAware Transoceanic
Sat 01:21:00 PM 38.4158 -126.8324 111° Southeast 508 585 40,000  Level FlightAware Transoceanic
Sat 01:22:00 PM 38.3646 -126.6650 111° Southeast 508 585 40,000  Level FlightAware Transoceanic
Sat 01:24:38 PM 38.1750 -126.1860 104° East 514 592 40,000  Level FlightAware ADS-B
Sat 01:25:14 PM 38.1370 -126.0850 116° Southeast 514 592 40,000  Level FlightAware ADS-B
Sat 01:25:46 PM 38.1040 -125.9980 116° Southeast 514 592 40,000  Level FlightAware ADS-B
Sat 01:26:22 PM 38.0690 -125.9030 115° Southeast 513 590 40,000  Level FlightAware ADS-B
Sat 01:27:00 PM 38.0290 -125.7970 116° Southeast 513 590 40,000  Level FlightAware ADS-B
Sat 01:27:33 PM 37.9960 -125.7100 116° Southeast 514 592 40,000  Level FlightAware ADS-B
Sat 01:28:09 PM 37.9580 -125.6110 116° Southeast 517 595 40,000  Level FlightAware ADS-B
Sat 01:28:57 PM 37.9080 -125.4790 116° Southeast 519 597 40,000  Level FlightAware ADS-B
Sat 01:29:33 PM 37.8720 -125.3830 115° Southeast 518 596 40,000  Level FlightAware ADS-B
Sat 01:30:07 PM 37.8360 -125.2880 116° Southeast 519 597 40,000  Level FlightAware ADS-B
Sat 01:30:43 PM 37.8000 -125.1920 115° Southeast 519 597 40,000  Level FlightAware ADS-B
Sat 01:31:15 PM 37.7660 -125.1040 116° Southeast 517 595 40,000 88 Level FlightAware ADS-B
Sat 01:31:51 PM 37.7280 -125.0030 115° Southeast 517 595 40,100 493 Climbing FlightAware ADS-B
Sat 01:32:28 PM 37.6910 -124.9080 116° Southeast 516 594 40,600 750 Climbing FlightAware ADS-B
Sat 01:33:03 PM 37.6540 -124.8100 115° Southeast 516 594 41,000 338 Climbing FlightAware ADS-B
Sat 01:33:39 PM 37.6160 -124.7110 116° Southeast 517 595 41,000  Level FlightAware ADS-B
Sat 01:34:11 PM 37.5820 -124.6240 116° Southeast 517 595 41,000  Level FlightAware ADS-B
Sat 01:34:47 PM 37.5460 -124.5310 116° Southeast 517 595 41,000  Level FlightAware ADS-B
Sat 01:35:23 PM 37.5070 -124.4320 116° Southeast 516 594 41,000  Level FlightAware ADS-B
Sat 01:35:55 PM 37.4740 -124.3450 116° Southeast 517 595 41,000  Level FlightAware ADS-B
Sat 01:36:32 PM 37.4360 -124.2480 116° Southeast 517 595 41,000  Level FlightAware ADS-B
Sat 01:37:08 PM 37.3960 -124.1480 117° Southeast 518 596 41,000  Level FlightAware ADS-B
Sat 01:37:43 PM 37.3600 -124.0550 116° Southeast 519 597 41,000  Level FlightAware ADS-B
Sat 01:38:16 PM 37.3250 -123.9670 117° Southeast 519 597 41,000  Level FlightAware ADS-B
Sat 01:38:54 PM 37.2830 -123.8610 116° Southeast 518 596 41,000  Level FlightAware ADS-B
Sat 01:39:26 PM 37.2500 -123.7770 116° Southeast 519 597 41,000  Level FlightAware ADS-B
Sat 01:40:04 PM 37.2090 -123.6730 116° Southeast 520 598 41,000  Level FlightAware ADS-B
Sat 01:40:40 PM 37.1700 -123.5780 117° Southeast 518 596 41,000  Level FlightAware ADS-B
Sat 01:41:12 PM 37.1360 -123.4910 116° Southeast 519 597 41,000  Level FlightAware ADS-B
Sat 01:41:48 PM 37.0980 -123.3960 117° Southeast 519 597 41,000  Level FlightAware ADS-B
Sat 01:42:22 PM 37.0610 -123.3050 117° Southeast 517 595 41,000  Level FlightAware ADS-B
Sat 01:42:56 PM 37.0240 -123.2140 117° Southeast 514 592 41,000  Level FlightAware ADS-B
Sat 01:43:32 PM 36.9850 -123.1180 117° Southeast 515 593 41,000  Level FlightAware ADS-B
Sat 01:44:09 PM 36.9460 -123.0220 117° Southeast 516 594 41,000  Level FlightAware ADS-B
Sat 01:44:44 PM 36.9080 -122.9280 117° Southeast 518 596 41,000  Level FlightAware ADS-B
Sat 01:45:18 PM 36.8700 -122.8360 117° Southeast 515 593 41,000  Level FlightAware ADS-B
Sat 01:45:52 PM 36.8340 -122.7480 117° Southeast 514 592 41,000  Level FlightAware ADS-B
Sat 01:46:28 PM 36.7940 -122.6510 117° Southeast 514 592 41,000  Level FlightAware ADS-B
Sat 01:47:04 PM 36.7560 -122.5580 117° Southeast 512 589 41,000  Level FlightAware ADS-B
Sat 01:47:34 PM 36.7230 -122.4790 118° Southeast 504 580 41,000  Level FlightAware ADS-B
Sat 01:48:14 PM 36.6820 -122.3790 117° Southeast 491 565 41,000  Level FlightAware ADS-B
Sat 01:48:42 PM 36.6516 -122.3070 118° Southeast 488 562 41,000  Level FlightAware ADS-B
Sat 01:49:13 PM 36.6196 -122.2300 117° Southeast 484 557 41,000  Level FlightAware ADS-B
Sat 01:49:58 PM 36.5740 -122.1210 117° Southeast 482 555 41,000  Level FlightAware ADS-B
Sat 01:50:32 PM 36.5390 -122.0380 118° Southeast 482 555 41,000  Level FlightAware ADS-B
Sat 01:51:06 PM 36.5040 -121.9550 118° Southeast 482 555 41,000  Level FlightAware ADS-B
Sat 01:51:42 PM 36.4670 -121.8650 117° Southeast 483 556 41,000  Level FlightAware ADS-B
Sat 01:52:18 PM 36.4290 -121.7760 118° Southeast 481 554 41,000  Level FlightAware ADS-B
Sat 01:52:54 PM 36.3940 -121.6930 118° Southeast 479 551 41,000  Level FlightAware ADS-B
Sat 01:53:26 PM 36.3600 -121.6150 118° Southeast 479 551 41,000  Level FlightAware ADS-B
Sat 01:54:02 PM 36.3220 -121.5240 117° Southeast 477 549 41,000  Level FlightAware ADS-B
Sat 01:54:35 PM 36.2890 -121.4480 118° Southeast 479 551 41,000  Level FlightAware ADS-B
Sat 01:55:12 PM 36.2500 -121.3550 117° Southeast 480 552 41,000  Level FlightAware ADS-B
Sat 01:55:48 PM 36.2120 -121.2680 118° Southeast 480 552 41,000  Level FlightAware ADS-B
Sat 01:56:23 PM 36.1757 -121.1830 118° Southeast 480 552 41,000  Level FlightAware ADS-B
Sat 01:56:56 PM 36.1410 -121.1040 119° Southeast 478 550 41,000  Level FlightAware ADS-B
Sat 01:57:07 PM 36.1290 -121.0750 117° Southeast 478 550 41,000  Level FlightAware ADS-B
Sat 01:58:09 PM 36.0670 -120.9310 118° Southeast 477 549 41,000  Level FlightAware ADS-B
Sat 01:58:41 PM 36.0320 -120.8510 118° Southeast 476 548 41,000  Level FlightAware ADS-B
Sat 01:59:19 PM 35.9930 -120.7620 118° Southeast 476 548 41,000  Level FlightAware ADS-B
Sat 01:59:55 PM 35.9550 -120.6750 118° Southeast 475 547 41,000  Level FlightAware ADS-B
Sat 02:00:27 PM 35.9210 -120.5990 119° Southeast 474 545 41,000  Level FlightAware ADS-B
Sat 02:01:04 PM 35.8840 -120.5140 118° Southeast 476 548 41,000  Level FlightAware ADS-B
Sat 02:01:39 PM 35.8460 -120.4280 119° Southeast 482 555 41,000  Level FlightAware ADS-B
Sat 02:02:09 PM 35.8150 -120.3560 118° Southeast 486 559 41,000  Level FlightAware ADS-B
Sat 02:02:47 PM 35.7730 -120.2630 119° Southeast 494 568 41,000  Level FlightAware ADS-B
Sat 02:03:24 PM 35.7340 -120.1730 118° Southeast 503 579 41,000  Level FlightAware ADS-B
Sat 02:03:58 PM 35.6930 -120.0810 119° Southeast 507 583 41,000  Level FlightAware ADS-B
Sat 02:04:32 PM 35.6520 -119.9990 122° Southeast 500 575 41,000 -254 Level FlightAware ADS-B
Sat 02:05:09 PM 35.5910 -119.9300 137° Southeast 492 566 40,700 -1,308 Descending FlightAware ADS-B
Sat 02:05:50 PM 35.5150 -119.8640 145° Southeast 492 566 39,300 -1,846 Descending FlightAware ADS-B
Sat 02:06:14 PM 35.4720 -119.8270 145° Southeast 485 558 38,700 -2,344 Descending FlightAware ADS-B
Sat 02:06:54 PM 35.3950 -119.7610 145° Southeast 493 567 36,800 -2,833 Descending FlightAware ADS-B
Sat 02:07:26 PM 35.3360 -119.7100 145° Southeast 497 572 35,300 -3,000 Descending FlightAware ADS-B
Sat 02:08:02 PM 35.2670 -119.6510 145° Southeast 501 577 33,400 -2,917 Descending FlightAware ADS-B
Sat 02:08:38 PM 35.2000 -119.5940 145° Southeast 503 579 31,800 -2,435 Descending FlightAware ADS-B
Sat 02:09:11 PM 35.1380 -119.5410 145° Southeast 495 570 30,600 -2,206 Descending FlightAware ADS-B
Sat 02:09:46 PM 35.0720 -119.4850 145° Southeast 491 565 29,300 -1,944 Descending FlightAware ADS-B
Sat 02:10:22 PM 35.0160 -119.4360 144° Southeast 478 550 28,300 -2,028 Descending FlightAware ADS-B
Sat 02:10:57 PM 34.9460 -119.3770 145° Southeast 474 545 26,900 -2,261 Descending FlightAware ADS-B
Sat 02:11:31 PM 34.8820 -119.3230 145° Southeast 458 527 25,700 -2,000 Descending FlightAware ADS-B
Sat 02:12:03 PM 34.8290 -119.2770 145° Southeast 450 518 24,700 -2,000 Descending FlightAware ADS-B
Sat 02:12:37 PM 34.7690 -119.2280 146° Southeast 449 517 23,500 -2,080 Descending FlightAware ADS-B
Sat 02:13:18 PM 34.7030 -119.1710 145° Southeast 432 497 22,100 -2,080 Descending FlightAware ADS-B
Sat 02:13:52 PM 34.6420 -119.1200 145° Southeast 419 482 20,900 -2,057 Descending FlightAware ADS-B
Sat 02:14:28 PM 34.5880 -119.0750 146° Southeast 380 437 19,700 -1,909 Descending FlightAware ADS-B
Sat 02:14:58 PM 34.5450 -119.0390 145° Southeast 360 414 18,800 -1,800 Descending FlightAware ADS-B
Sat 02:15:38 PM 34.4880 -118.9910 145° Southeast 358 412 17,600 -1,852 Descending FlightAware ADS-B
Sat 02:16:19 PM 34.4340 -118.9460 145° Southeast 359 413 16,300 -1,895 Descending FlightAware ADS-B
Sat 02:16:54 PM 34.3870 -118.9060 145° Southeast 356 410 15,200 -1,784 Descending FlightAware ADS-B
Sat 02:17:33 PM 34.3240 -118.8690 154° Southeast 346 398 14,100 -1,543 Descending FlightAware ADS-B
Sat 02:18:04 PM 34.2780 -118.8530 164° South 335 386 13,400 -1,455 Descending FlightAware ADS-B
Sat 02:18:39 PM 34.2260 -118.8330 162° South 337 388 12,500 -1,521 Descending FlightAware ADS-B
Sat 02:19:15 PM 34.1730 -118.8140 163° South 323 372 11,600 -1,520 Descending FlightAware ADS-B
Sat 02:19:54 PM 34.1170 -118.7930 163° South 323 372 10,600 -1,457 Descending FlightAware ADS-B
Sat 02:20:25 PM 34.0710 -118.7760 163° South 324 373 9,900 -913 Descending FlightAware ADS-B
Sat 02:20:40 PM 34.0540 -118.7620 146° Southeast 321 369 9,900  Level FlightAware ADS-B
Sat 02:20:44 PM 34.0480 -118.7550 136° Southeast 327 376 9,900  Level FlightAware ADS-B
Sat 02:20:52 PM 34.0430 -118.7460 124° Southeast 328 377 9,900  Level FlightAware ADS-B
Sat 02:21:00 PM 34.0370 -118.7290 113° Southeast 328 377 9,900  Level FlightAware ADS-B
Sat 02:21:16 PM 34.0330 -118.7010 100° East 333 383 9,900  Level FlightAware ADS-B
Sat 02:21:26 PM 34.0310 -118.6850 99° East 332 382 9,900 -600 Level FlightAware ADS-B
Sat 02:21:46 PM 34.0280 -118.6450 95° East 330 380 9,600 -667 Descending FlightAware ADS-B
Sat 02:22:11 PM 34.0240 -118.6000 96° East 312 359 9,400 -522 Descending FlightAware ADS-B
Sat 02:22:32 PM 34.0210 -118.5660 96° East 300 345 9,200 -500 Descending FlightAware ADS-B
Sat 02:22:47 PM 34.0190 -118.5420 96° East 292 336 9,100 -686 Descending FlightAware ADS-B
Sat 02:23:07 PM 34.0150 -118.5080 98° East 286 329 8,800 -1,077 Descending FlightAware ADS-B
Sat 02:23:26 PM 34.0120 -118.4780 97° East 285 328 8,400 -1,200 Descending FlightAware ADS-B
Sat 02:23:47 PM 34.0120 -118.4500 90° East 283 326 8,000 -1,161 Descending FlightAware ADS-B
Sat 02:23:57 PM 34.0140 -118.4310 83° East 283 326 7,800 -1,200 Descending FlightAware ADS-B
Sat 02:24:17 PM 34.0190 -118.4020 78° East 281 323 7,400 -923 Descending FlightAware ADS-B
Sat 02:24:36 PM 34.0240 -118.3710 79° East 273 314 7,200 -600 Descending FlightAware ADS-B
Sat 02:24:57 PM 34.0290 -118.3420 78° East 266 306 7,000 -585 Descending FlightAware ADS-B
Sat 02:25:17 PM 34.0340 -118.3120 79° East 258 297 6,800 -686 Descending FlightAware ADS-B
Sat 02:25:32 PM 34.0370 -118.2930 79° East 253 291 6,600 -706 Descending FlightAware ADS-B
Sat 02:25:51 PM 34.0420 -118.2650 78° East 234 269 6,400 -933 Descending FlightAware ADS-B
Sat 02:26:17 PM 34.0470 -118.2360 78° East 213 245 5,900 -1,333 Descending FlightAware ADS-B
Sat 02:26:27 PM 34.0490 -118.2230 79° East 210 242 5,600 -1,800 Descending FlightAware ADS-B
Sat 02:26:47 PM 34.0510 -118.2020 83° East 208 239 5,000 -2,045 Descending FlightAware ADS-B
Sat 02:27:11 PM 34.0380 -118.1770 122° Southeast 205 236 4,100 -2,471 Descending FlightAware ADS-B
Sat 02:27:21 PM 34.0280 -118.1740 166° South 209 241 3,600 -2,250 Descending FlightAware ADS-B
Sat 02:27:43 PM 34.0090 -118.1700 170° South 208 239 2,900 -1,404 Descending FlightAware ADS-B
Sat 02:28:08 PM 33.9890 -118.1800 203° Southwest 204 235 2,500 -800 Descending FlightAware ADS-B
Sat 02:28:13 PM 33.9860 -118.1840 228° Southwest 197 227 2,500  Level FlightAware ADS-B
Sat 02:28:24 PM 33.9790 -118.1940 230° Southwest 190 219 2,500  Level FlightAware ADS-B
Sat 02:28:40 PM 33.9730 -118.2060 239° Southwest 186 214 2,500  Level FlightAware ADS-B
Sat 02:28:51 PM 33.9700 -118.2220 257° West 188 216 2,500  Level FlightAware ADS-B
Sat 02:29:11 PM 33.9680 -118.2430 263° West 187 215 2,500  Level FlightAware ADS-B
Sat 02:29:20 PM 33.9680 -118.2500 270° West 187 215 2,500 -833 Level FlightAware ADS-B
Sat 02:29:47 PM 33.9650 -118.2780 263° West 170 196 2,000 -955 Descending FlightAware ADS-B
Sat 02:30:04 PM 33.9630 -118.2940 261° West 156 180 1,800 -811 Descending FlightAware ADS-B
Sat 02:30:24 PM 33.9610 -118.3100 261° West 147 169 1,500 -686 Descending FlightAware ADS-B
Sat 02:30:39 PM 33.9600 -118.3210 264° West 148 170 1,400 -750 Descending FlightAware ADS-B
Sat 02:31:04 PM 33.9580 -118.3420 263° West 151 174 1,000 -436 Descending FlightAware ADS-B
Sat 02:31:34 PM 33.9560 -118.3620 263° West 148 170 1,000 -720 Level FlightAware ADS-B
Sat 02:31:54 PM 33.9540 -118.3820 263° West 166 191 400 -1,174 Descending FlightAware ADS-B
Sat 02:32:20 PM 33.9520 -118.4030 263° West 140 161 100 -340 Descending FlightAware ADS-B
Sat 02:32:47 PM 33.9520 -118.4210 270° West 140 161 100  Level FlightAware ADS-B

Login

Don't have an account? Register now (free) for customized features, flight alerts, and more!